KERI/ERI METAR and TAF weather

Enter ICAO airport designator
Station Type Date Time Source
KERI METAR 2022/01/26 19:51 UTC NOAA

KERI 261951Z 24008KT 5SM -SN OVC031 M09/M14 A3039 RMK AO2 SLP305 P0000 T10891139 $


Station Type Date Time Source
KERI Decoded METAR 2022/01/26 19:51 UTC NOAA

ERIE INTERNATIONAL AIRPORT, PA, United States (KERI) 42-05N 080-11W 222M
Jan 26, 2022 - 02:51 PM EST / 2022.01.26 1951 UTC
Wind: from the WSW (240 degrees) at 9 MPH (8 KT):0
Visibility: 5 mile(s):0
Sky conditions: overcast
Weather: light snow
Precipitation last hour: A trace
Temperature: 16.0 F (-8.9 C)
Windchill: 5 F (-15 C):1
Dew Point: 7.0 F (-13.9 C)
Relative Humidity: 67%
Pressure (altimeter): 30.39 in. Hg (1029 hPa)
ob: KERI 261951Z 24008KT 5SM -SN OVC031 M09/M14 A3039 RMK AO2 SLP305 P0000 T10891139
cycle: 20

Station Type Date Time Source
KERI TAF 2022/01/26 19:18 UTC NOAA

TAF
AMD KERI 261917Z 2619/2718 23006KT P6SM VCSH SCT022 OVC035
TEMPO 2619/2621 2SM -SN OVC022
FM262200 24007KT P6SM OVC035
FM270600 19012G20KT P6SM SCT250

Example: see airport list